createdAt,value
2018-12-11T00:00:02.783Z,12.80
2018-12-11T00:01:02.812Z,13.50
2018-12-11T00:02:02.835Z,9.90
2018-12-11T00:03:02.862Z,13.30
2018-12-11T00:04:02.888Z,12.10
2018-12-11T00:05:02.921Z,12.10
2018-12-11T00:06:02.939Z,13.30
2018-12-11T00:07:02.966Z,11.50
2018-12-11T00:08:02.992Z,9.60
2018-12-11T00:09:03.019Z,11.00
2018-12-11T00:10:03.072Z,14.90
2018-12-11T00:11:03.069Z,11.30
2018-12-11T00:12:03.096Z,15.60
2018-12-11T00:13:03.123Z,13.40
2018-12-11T00:14:03.146Z,16.10
2018-12-11T00:15:03.174Z,16.20
2018-12-11T00:16:03.201Z,19.80
2018-12-11T00:17:03.225Z,19.30
2018-12-11T00:18:03.250Z,15.50
2018-12-11T00:19:03.276Z,18.70
2018-12-11T00:20:03.304Z,15.20
2018-12-11T00:21:03.329Z,12.10
2018-12-11T00:22:03.357Z,13.40
2018-12-11T00:23:03.381Z,17.30
2018-12-11T00:24:03.406Z,14.10
2018-12-11T00:25:03.433Z,12.90
2018-12-11T00:26:03.457Z,16.10
2018-12-11T00:27:03.483Z,17.90
2018-12-11T00:28:03.508Z,26.20
2018-12-11T00:29:03.535Z,17.20
2018-12-11T00:30:03.560Z,13.90
2018-12-11T00:31:03.586Z,12.60
2018-12-11T00:32:03.613Z,14.20
2018-12-11T00:33:03.638Z,15.60
2018-12-11T00:34:03.676Z,13.70
2018-12-11T00:35:03.690Z,13.30
2018-12-11T00:36:03.715Z,14.10
2018-12-11T00:37:03.741Z,10.20
2018-12-11T00:38:03.766Z,15.60
2018-12-11T00:39:03.792Z,15.10
2018-12-11T00:40:03.817Z,13.60
2018-12-11T00:41:03.843Z,18.40
2018-12-11T00:42:03.867Z,10.80
2018-12-11T00:43:03.898Z,12.90
2018-12-11T00:44:03.922Z,12.00
2018-12-11T00:45:03.946Z,14.20
2018-12-11T00:46:03.971Z,13.30
2018-12-11T00:47:03.998Z,11.70
2018-12-11T00:48:04.024Z,10.40
2018-12-11T00:49:04.049Z,14.70
2018-12-11T00:50:04.073Z,11.70
2018-12-11T00:51:04.099Z,12.00
2018-12-11T00:52:04.125Z,14.10
2018-12-11T00:53:04.150Z,13.20
2018-12-11T00:54:04.175Z,9.50
2018-12-11T00:55:04.203Z,23.50
2018-12-11T00:56:04.234Z,16.00
2018-12-11T00:57:04.253Z,13.20
2018-12-11T00:58:04.280Z,19.90
2018-12-11T00:59:04.308Z,20.90
2018-12-11T01:00:04.331Z,20.70
2018-12-11T01:01:04.355Z,19.60
2018-12-11T01:02:04.380Z,20.00
2018-12-11T01:03:04.406Z,21.50
2018-12-11T01:04:04.432Z,25.90
2018-12-11T01:05:04.456Z,20.60
2018-12-11T01:06:04.482Z,20.60
2018-12-11T01:07:04.508Z,12.50
2018-12-11T01:08:04.532Z,16.60
2018-12-11T01:09:04.558Z,13.30
2018-12-11T01:10:04.588Z,19.80
2018-12-11T01:11:04.611Z,17.30
2018-12-11T01:12:04.635Z,16.20
2018-12-11T01:13:04.660Z,12.20
2018-12-11T01:14:04.685Z,11.60
2018-12-11T01:15:04.709Z,16.00
2018-12-11T01:16:04.741Z,20.40
2018-12-11T01:17:04.760Z,12.80
2018-12-11T01:18:04.786Z,17.80
2018-12-11T01:19:04.811Z,11.30
2018-12-11T01:20:04.837Z,10.70
2018-12-11T01:21:04.862Z,12.10
2018-12-11T01:22:04.888Z,13.00
2018-12-11T01:23:04.910Z,14.90
2018-12-11T01:24:04.938Z,21.20
2018-12-11T01:25:04.962Z,13.70
2018-12-11T01:26:04.988Z,18.50
2018-12-11T01:27:05.015Z,19.80
2018-12-11T01:28:05.040Z,17.50
2018-12-11T01:29:05.063Z,15.20
2018-12-11T01:31:05.517Z,17.40
2018-12-11T01:32:05.138Z,16.70
2018-12-11T01:33:47.705Z,18.90
2018-12-11T01:34:47.729Z,19.10
2018-12-11T01:35:47.754Z,18.30
2018-12-11T01:36:47.779Z,24.70
2018-12-11T01:37:47.803Z,23.50
2018-12-11T01:38:47.829Z,25.50
2018-12-11T01:39:47.856Z,22.30
2018-12-11T01:40:47.879Z,23.20
2018-12-11T01:41:49.708Z,22.10
2018-12-11T01:42:47.928Z,23.20
2018-12-11T01:43:47.955Z,18.30
2018-12-11T01:44:47.977Z,20.40
2018-12-11T01:45:48.003Z,25.30
2018-12-11T01:46:48.029Z,16.00
2018-12-11T01:47:48.054Z,19.40
2018-12-11T01:48:48.079Z,17.10
2018-12-11T01:49:48.102Z,24.60
2018-12-11T01:50:48.127Z,19.50
2018-12-11T01:51:48.152Z,24.10
2018-12-11T01:52:48.178Z,20.70
2018-12-11T01:53:48.203Z,25.00
2018-12-11T01:54:48.227Z,17.70
2018-12-11T01:55:48.254Z,24.00
2018-12-11T01:56:48.280Z,21.30
2018-12-11T01:57:48.302Z,21.40
2018-12-11T01:58:48.327Z,20.60
2018-12-11T01:59:48.351Z,16.70
2018-12-11T02:00:48.375Z,20.20
2018-12-11T02:01:48.402Z,21.90
2018-12-11T02:02:48.426Z,25.00
2018-12-11T02:03:48.451Z,29.50
2018-12-11T02:04:48.476Z,17.00
2018-12-11T02:05:48.500Z,12.70
2018-12-11T02:06:48.525Z,17.10
2018-12-11T02:07:48.550Z,20.30
2018-12-11T02:08:48.574Z,12.50
2018-12-11T02:09:48.599Z,18.50
2018-12-11T02:10:48.624Z,19.00
2018-12-11T02:11:48.652Z,10.90
2018-12-11T02:12:48.673Z,7.80
2018-12-11T02:13:48.699Z,13.20
2018-12-11T02:14:48.723Z,18.30
2018-12-11T02:15:48.748Z,15.40
2018-12-11T02:16:48.772Z,14.10
2018-12-11T02:17:48.797Z,15.10
2018-12-11T02:18:48.823Z,13.10
2018-12-11T02:19:48.847Z,17.90
2018-12-11T02:20:48.870Z,15.50
2018-12-11T02:21:48.895Z,20.80
2018-12-11T02:22:48.920Z,8.80
2018-12-11T02:23:48.945Z,8.50
2018-12-11T02:24:48.970Z,11.70
2018-12-11T02:25:48.994Z,13.20
2018-12-11T02:26:49.020Z,12.90
2018-12-11T02:27:49.043Z,12.00
2018-12-11T02:28:49.067Z,16.50
2018-12-11T02:29:49.092Z,16.20
2018-12-11T02:30:49.119Z,13.50
2018-12-11T02:31:49.142Z,11.80
2018-12-11T02:32:49.167Z,19.50
2018-12-11T02:33:49.190Z,20.70
2018-12-11T02:34:49.216Z,13.90
2018-12-11T02:35:49.239Z,13.50
2018-12-11T02:36:49.266Z,13.60
2018-12-11T02:37:49.292Z,11.70
2018-12-11T02:38:49.313Z,17.60
2018-12-11T02:39:49.337Z,13.80
2018-12-11T02:40:49.360Z,12.50
2018-12-11T02:41:49.385Z,15.70
2018-12-11T02:42:49.411Z,10.40
2018-12-11T02:43:49.436Z,17.40
2018-12-11T02:44:49.457Z,14.10
2018-12-11T02:45:49.484Z,16.50
2018-12-11T02:46:49.505Z,15.90
2018-12-11T02:47:49.530Z,19.50
2018-12-11T02:48:49.557Z,16.00
2018-12-11T02:49:49.580Z,20.00
2018-12-11T02:50:49.605Z,18.00
2018-12-11T02:51:49.627Z,18.00
2018-12-11T02:52:49.650Z,18.20
2018-12-11T02:53:49.675Z,15.10
2018-12-11T02:54:49.699Z,16.30
2018-12-11T02:55:49.725Z,14.20
2018-12-11T02:56:49.749Z,21.20
2018-12-11T02:57:49.772Z,16.30
2018-12-11T02:58:49.797Z,15.40
2018-12-11T02:59:49.822Z,20.00
2018-12-11T03:00:49.847Z,16.50
2018-12-11T03:01:49.869Z,14.60
2018-12-11T03:02:49.903Z,17.60
2018-12-11T03:03:49.920Z,14.40
2018-12-11T03:04:49.941Z,14.20
2018-12-11T03:05:49.967Z,13.00
2018-12-11T03:06:49.991Z,19.10
2018-12-11T03:07:50.014Z,15.30
2018-12-11T03:08:50.039Z,12.70
2018-12-11T03:09:50.062Z,18.60
2018-12-11T03:10:50.086Z,13.40
2018-12-11T03:11:50.121Z,10.00
2018-12-11T03:12:50.134Z,11.60
2018-12-11T03:13:50.159Z,7.90
2018-12-11T03:14:50.188Z,10.90
2018-12-11T03:15:50.207Z,13.40
2018-12-11T03:16:50.230Z,12.70
2018-12-11T03:17:50.256Z,20.20
2018-12-11T03:18:50.280Z,13.40
2018-12-11T03:19:50.304Z,15.60
2018-12-11T03:20:50.328Z,18.40
2018-12-11T03:21:50.354Z,9.00
2018-12-11T03:22:50.379Z,12.70
2018-12-11T03:23:50.402Z,13.40
2018-12-11T03:24:50.431Z,13.40
2018-12-11T03:25:50.450Z,9.10
2018-12-11T03:26:50.474Z,17.90
2018-12-11T03:27:50.498Z,14.10
2018-12-11T03:28:50.521Z,14.10
2018-12-11T03:29:50.553Z,18.40
2018-12-11T03:30:50.572Z,11.50
2018-12-11T03:31:50.596Z,19.80
2018-12-11T03:32:50.625Z,15.80
2018-12-11T03:33:50.643Z,18.30
2018-12-11T03:34:50.667Z,16.40
2018-12-11T03:35:50.692Z,11.80
2018-12-11T03:36:50.716Z,15.60
2018-12-11T03:37:50.743Z,21.70
2018-12-11T03:38:50.764Z,15.30
2018-12-11T03:39:50.790Z,22.90
2018-12-11T03:40:50.812Z,11.90
2018-12-11T03:41:50.847Z,13.70
2018-12-11T03:42:50.861Z,14.30
2018-12-11T03:43:50.889Z,18.70
2018-12-11T03:44:50.911Z,20.00
2018-12-11T03:45:50.934Z,15.40
2018-12-11T03:46:50.959Z,15.30
2018-12-11T03:47:50.983Z,17.20
2018-12-11T03:48:51.008Z,18.80
2018-12-11T03:49:51.031Z,20.20
2018-12-11T03:50:51.057Z,12.20
2018-12-11T03:51:51.081Z,15.30
2018-12-11T03:52:51.103Z,12.50
2018-12-11T03:53:51.130Z,10.30
2018-12-11T03:54:51.154Z,20.90
2018-12-11T03:55:51.182Z,15.90
2018-12-11T03:56:51.204Z,14.50
2018-12-11T03:57:51.230Z,13.10
2018-12-11T03:58:51.250Z,18.30
2018-12-11T03:59:51.294Z,12.80
2018-12-11T04:00:51.301Z,9.40
2018-12-11T04:01:51.324Z,14.70
2018-12-11T04:02:51.350Z,16.10
2018-12-11T04:03:51.373Z,14.30
2018-12-11T04:04:51.396Z,12.40
2018-12-11T04:05:51.421Z,17.00
2018-12-11T04:06:51.446Z,15.60
2018-12-11T04:07:51.472Z,11.10
2018-12-11T04:08:51.496Z,12.20
2018-12-11T04:09:51.519Z,15.80
2018-12-11T04:10:51.546Z,11.50
2018-12-11T04:11:51.567Z,12.30
2018-12-11T04:12:51.592Z,20.10
2018-12-11T04:13:51.616Z,16.90
2018-12-11T04:14:51.640Z,15.20
2018-12-11T04:15:51.677Z,12.30
2018-12-11T04:16:51.691Z,16.70
2018-12-11T04:17:51.713Z,16.40
2018-12-11T04:18:51.738Z,11.70
2018-12-11T04:19:51.763Z,13.60
2018-12-11T04:20:51.786Z,15.70
2018-12-11T04:21:51.814Z,13.00
2018-12-11T04:22:51.837Z,16.10
2018-12-11T04:23:51.860Z,13.20
2018-12-11T04:24:51.895Z,11.90
2018-12-11T04:25:51.910Z,23.60
2018-12-11T04:26:51.934Z,12.10
2018-12-11T04:27:51.959Z,15.60
2018-12-11T04:28:51.984Z,11.90
2018-12-11T04:29:52.007Z,15.50
2018-12-11T04:30:52.030Z,10.70
2018-12-11T04:31:52.055Z,11.70
2018-12-11T04:32:52.080Z,15.00
2018-12-11T04:33:52.103Z,16.60
2018-12-11T04:34:52.127Z,9.30
2018-12-11T04:35:52.154Z,13.00
2018-12-11T04:36:52.177Z,14.30
2018-12-11T04:37:52.200Z,13.80
2018-12-11T04:38:52.225Z,14.30
2018-12-11T04:39:52.253Z,11.30
2018-12-11T04:40:52.274Z,15.40
2018-12-11T04:41:52.351Z,17.80
2018-12-11T04:42:52.327Z,23.70
2018-12-11T04:43:52.346Z,16.00
2018-12-11T04:44:52.372Z,16.90
2018-12-11T04:45:52.396Z,12.80
2018-12-11T04:46:52.420Z,16.80
2018-12-11T04:47:52.443Z,13.10
2018-12-11T04:48:52.465Z,11.60
2018-12-11T04:49:52.490Z,14.00
2018-12-11T04:50:52.517Z,13.40
2018-12-11T04:51:52.540Z,14.50
2018-12-11T04:52:52.562Z,21.10
2018-12-11T04:53:52.586Z,10.20
2018-12-11T04:54:52.610Z,13.30
2018-12-11T04:55:52.636Z,15.30
2018-12-11T04:56:52.658Z,13.40
2018-12-11T04:57:52.682Z,10.70
2018-12-11T04:58:52.707Z,18.50
2018-12-11T04:59:52.730Z,15.40
2018-12-11T05:00:52.754Z,14.10
2018-12-11T05:01:52.778Z,24.20
2018-12-11T05:02:52.803Z,17.20
2018-12-11T05:03:52.827Z,14.90
2018-12-11T05:04:52.907Z,12.60
2018-12-11T05:05:52.875Z,17.90
2018-12-11T05:06:52.899Z,10.70
2018-12-11T05:07:52.926Z,11.00
2018-12-11T05:08:52.947Z,11.90
2018-12-11T05:09:52.973Z,15.10
2018-12-11T05:10:52.995Z,13.50
2018-12-11T05:11:53.019Z,15.50
2018-12-11T05:12:53.042Z,9.00
2018-12-11T05:13:53.068Z,13.90
2018-12-11T05:14:53.092Z,11.60
2018-12-11T05:15:53.116Z,9.90
2018-12-11T05:16:53.139Z,19.90
2018-12-11T05:17:53.164Z,9.40
2018-12-11T05:18:53.187Z,11.70
2018-12-11T05:19:53.212Z,18.10
2018-12-11T05:20:53.241Z,14.00
2018-12-11T05:21:53.263Z,19.90
2018-12-11T05:22:53.285Z,17.70
2018-12-11T05:23:53.309Z,15.20
2018-12-11T05:24:53.334Z,11.20
2018-12-11T05:25:53.359Z,13.60
2018-12-11T05:26:53.382Z,13.80
2018-12-11T05:27:53.407Z,13.30
2018-12-11T05:28:53.432Z,15.40
2018-12-11T05:29:53.454Z,14.80
2018-12-11T05:30:53.478Z,11.80
2018-12-11T05:31:53.556Z,11.90
2018-12-11T05:32:53.527Z,21.40
2018-12-11T05:33:53.551Z,13.60
2018-12-11T05:34:53.576Z,14.80
2018-12-11T05:35:53.600Z,14.30
2018-12-11T05:36:53.623Z,9.90
2018-12-11T05:37:53.648Z,8.60
2018-12-11T05:38:53.674Z,16.80
2018-12-11T05:39:53.702Z,15.60
2018-12-11T05:40:53.720Z,13.30
2018-12-11T05:41:53.746Z,15.80
2018-12-11T05:42:53.828Z,11.20
2018-12-11T05:43:53.796Z,12.90
2018-12-11T05:44:53.818Z,8.90
2018-12-11T05:45:53.843Z,11.60
2018-12-11T05:46:53.867Z,10.30
2018-12-11T05:47:53.892Z,10.60
2018-12-11T05:48:53.915Z,8.90
2018-12-11T05:49:53.940Z,18.20
2018-12-11T05:50:53.969Z,23.30
2018-12-11T05:51:53.991Z,12.60
2018-12-11T05:52:54.014Z,15.30
2018-12-11T05:53:54.039Z,12.90
2018-12-11T05:54:54.062Z,13.90
2018-12-11T05:55:54.088Z,12.30
2018-12-11T05:56:54.110Z,14.00
2018-12-11T05:57:54.135Z,18.10
2018-12-11T05:58:54.161Z,13.60
2018-12-11T05:59:54.184Z,10.90
2018-12-11T06:00:54.208Z,18.50
2018-12-11T06:01:54.232Z,12.20
2018-12-11T06:02:54.260Z,15.10
2018-12-11T06:03:54.285Z,17.40
2018-12-11T06:04:54.306Z,13.00
2018-12-11T06:05:54.329Z,13.80
2018-12-11T06:06:54.355Z,20.50
2018-12-11T06:07:54.379Z,13.80
2018-12-11T06:08:54.403Z,16.40
2018-12-11T06:09:54.429Z,15.50
2018-12-11T06:10:54.453Z,21.10
2018-12-11T06:11:54.477Z,14.40
2018-12-11T06:12:54.502Z,14.20
2018-12-11T06:13:54.525Z,12.10
2018-12-11T06:14:54.551Z,19.30
2018-12-11T06:15:54.577Z,16.20
2018-12-11T06:16:54.599Z,11.20
2018-12-11T06:17:54.623Z,13.40
2018-12-11T06:18:54.648Z,12.70
2018-12-11T06:19:54.673Z,12.00
2018-12-11T06:20:54.696Z,9.00
2018-12-11T06:21:54.722Z,9.10
2018-12-11T06:22:54.765Z,12.40
2018-12-11T06:23:54.772Z,10.40
2018-12-11T06:24:54.794Z,12.30
2018-12-11T06:25:54.819Z,8.50
2018-12-11T06:26:54.846Z,8.50
2018-12-11T06:27:54.869Z,8.60
2018-12-11T06:28:54.892Z,9.70
2018-12-11T06:29:54.919Z,17.10
2018-12-11T06:30:54.942Z,8.40
2018-12-11T06:31:54.967Z,12.80
2018-12-11T06:32:54.990Z,8.40
2018-12-11T06:33:55.015Z,9.60
2018-12-11T06:34:55.041Z,9.80
2018-12-11T06:35:55.065Z,9.60
2018-12-11T06:36:55.090Z,10.20
2018-12-11T06:37:55.114Z,10.60
2018-12-11T06:38:55.139Z,9.70
2018-12-11T06:39:55.163Z,9.60
2018-12-11T06:40:55.187Z,12.90
2018-12-11T06:41:55.213Z,12.40
2018-12-11T06:42:55.237Z,9.80
2018-12-11T06:43:55.263Z,9.30
2018-12-11T06:44:55.286Z,9.00
2018-12-11T06:45:55.311Z,11.50
2018-12-11T06:46:55.339Z,12.00
2018-12-11T06:47:55.360Z,8.90
2018-12-11T06:48:55.387Z,9.80
2018-12-11T06:49:55.414Z,10.00
2018-12-11T06:50:55.435Z,13.30
2018-12-11T06:51:55.459Z,10.40
2018-12-11T06:52:55.487Z,15.40
2018-12-11T06:53:55.508Z,8.20
2018-12-11T06:54:55.533Z,7.80
2018-12-11T06:55:55.556Z,15.10
2018-12-11T06:56:55.581Z,11.70
2018-12-11T06:57:55.606Z,9.70
2018-12-11T06:58:55.632Z,10.80
2018-12-11T06:59:55.662Z,11.30
2018-12-11T07:00:55.680Z,13.80
2018-12-11T07:01:55.704Z,10.40
2018-12-11T07:02:55.730Z,20.10
2018-12-11T07:03:55.754Z,11.70
2018-12-11T07:04:55.777Z,10.00
2018-12-11T07:05:55.804Z,10.40
2018-12-11T07:06:55.836Z,10.10
2018-12-11T07:07:55.852Z,7.10
2018-12-11T07:08:55.876Z,7.60
2018-12-11T07:09:55.901Z,11.10
2018-12-11T07:10:55.928Z,6.60
2018-12-11T07:11:55.951Z,7.00
2018-12-11T07:12:55.975Z,6.30
2018-12-11T07:13:56.007Z,11.10
2018-12-11T07:14:56.025Z,8.80
2018-12-11T07:15:56.048Z,9.40
2018-12-11T07:16:56.073Z,9.20
2018-12-11T07:17:56.097Z,18.10
2018-12-11T07:18:56.123Z,11.30
2018-12-11T07:19:56.231Z,11.40
2018-12-11T07:20:56.226Z,12.00
2018-12-11T07:21:56.195Z,9.00
2018-12-11T07:22:56.221Z,18.90
2018-12-11T07:23:56.248Z,9.10
2018-12-11T07:24:56.410Z,14.70
2018-12-11T07:25:56.294Z,9.90
2018-12-11T07:26:56.333Z,16.10
2018-12-11T07:27:56.364Z,13.60
2018-12-11T07:28:56.379Z,11.80
2018-12-11T07:29:56.413Z,10.60
2018-12-11T07:30:56.434Z,15.30
2018-12-11T07:31:56.455Z,10.40
2018-12-11T07:32:56.484Z,9.80
2018-12-11T07:33:56.506Z,15.20
2018-12-11T07:34:56.533Z,14.40
2018-12-11T07:35:56.561Z,12.20
2018-12-11T07:36:56.582Z,12.30
2018-12-11T07:37:56.606Z,11.50
2018-12-11T07:38:56.616Z,11.50
2018-12-11T07:39:56.640Z,10.30
2018-12-11T07:40:56.667Z,13.20
2018-12-11T07:41:56.689Z,9.40
2018-12-11T07:42:56.713Z,10.40
2018-12-11T07:43:56.738Z,10.70
2018-12-11T07:44:56.767Z,12.50
2018-12-11T07:45:56.788Z,12.40
2018-12-11T07:46:56.817Z,10.30
2018-12-11T07:47:56.839Z,11.70
2018-12-11T07:48:56.862Z,12.00
2018-12-11T07:49:56.887Z,11.60
2018-12-11T07:50:56.912Z,8.80
2018-12-11T07:51:56.937Z,12.20
2018-12-11T07:52:56.961Z,7.90
2018-12-11T07:53:56.988Z,7.40
2018-12-11T07:54:57.011Z,9.40
2018-12-11T07:56:00.232Z,9.50
2018-12-11T07:56:57.060Z,11.90
2018-12-11T07:57:57.084Z,18.00
2018-12-11T07:58:57.109Z,13.10
2018-12-11T07:59:57.135Z,12.90
2018-12-11T08:00:57.159Z,15.90
2018-12-11T08:01:57.187Z,13.60
2018-12-11T08:02:57.209Z,14.60
2018-12-11T08:03:57.234Z,15.40
2018-12-11T08:04:57.257Z,16.00
2018-12-11T08:05:57.334Z,17.50
2018-12-11T08:06:57.308Z,12.10
2018-12-11T08:07:57.334Z,12.50
2018-12-11T08:08:57.374Z,11.00
2018-12-11T08:09:57.403Z,13.00
2018-12-11T08:10:57.408Z,16.70
2018-12-11T08:11:57.452Z,11.90
2018-12-11T08:12:57.476Z,13.50
2018-12-11T08:13:57.504Z,14.20
2018-12-11T08:14:57.521Z,9.00
2018-12-11T08:15:57.551Z,11.40
2018-12-11T08:16:57.587Z,8.50
2018-12-11T08:17:57.584Z,12.60
2018-12-11T08:18:57.611Z,11.50
2018-12-11T08:19:57.634Z,10.80
2018-12-11T08:20:57.660Z,14.50
2018-12-11T08:21:57.683Z,10.90
2018-12-11T08:22:57.711Z,11.80
2018-12-11T08:23:57.735Z,8.90
2018-12-11T08:24:57.758Z,10.80
2018-12-11T08:25:57.784Z,10.00
2018-12-11T08:26:57.811Z,8.60
2018-12-11T08:27:57.837Z,11.20
2018-12-11T08:28:57.861Z,13.70
2018-12-11T08:29:57.887Z,8.80
2018-12-11T08:30:57.911Z,12.10
2018-12-11T08:31:57.938Z,8.50
2018-12-11T08:32:57.961Z,19.30
2018-12-11T08:33:57.987Z,13.50
2018-12-11T08:34:58.014Z,7.10
2018-12-11T08:35:58.039Z,9.80
2018-12-11T08:36:58.064Z,12.20
2018-12-11T08:37:58.090Z,7.40
2018-12-11T08:38:58.115Z,7.70
2018-12-11T08:39:58.142Z,8.00
2018-12-11T08:40:58.164Z,8.50
2018-12-11T08:41:58.198Z,11.10
2018-12-11T08:42:58.216Z,11.50
2018-12-11T08:43:58.242Z,9.20
2018-12-11T08:44:58.269Z,9.30
2018-12-11T08:45:58.294Z,14.90
2018-12-11T08:46:58.319Z,11.10
2018-12-11T08:47:58.347Z,9.30
2018-12-11T08:48:58.378Z,10.20
2018-12-11T08:49:58.397Z,8.80
2018-12-11T08:50:58.424Z,13.10
2018-12-11T08:51:58.449Z,8.00
2018-12-11T08:52:58.474Z,10.10
2018-12-11T08:53:58.499Z,8.20
2018-12-11T08:54:58.526Z,8.60
2018-12-11T08:55:58.553Z,7.50
2018-12-11T08:56:58.577Z,7.80
2018-12-11T08:57:58.605Z,10.50
2018-12-11T08:58:58.631Z,7.90
2018-12-11T08:59:58.659Z,9.70
2018-12-11T09:00:58.687Z,8.00
2018-12-11T09:01:58.713Z,8.80
2018-12-11T09:02:58.738Z,15.70
2018-12-11T09:03:58.765Z,11.00
2018-12-11T09:04:58.795Z,10.00
2018-12-11T09:05:58.821Z,7.50
2018-12-11T09:06:58.873Z,19.50
2018-12-11T09:07:58.881Z,28.60
2018-12-11T09:08:58.910Z,36.60
2018-12-11T09:09:58.966Z,34.70
2018-12-11T09:10:58.966Z,31.90
2018-12-11T09:11:59.006Z,33.30
2018-12-11T09:12:59.022Z,35.00
2018-12-11T09:13:59.056Z,54.80
2018-12-11T09:14:59.083Z,50.70
2018-12-11T09:15:59.113Z,32.30
2018-12-11T09:16:59.144Z,27.10
2018-12-11T09:17:59.174Z,22.40
2018-12-11T09:18:59.204Z,19.50
2018-12-11T09:19:59.235Z,15.80
2018-12-11T09:20:59.266Z,15.90
2018-12-11T09:21:59.299Z,21.90
2018-12-11T09:22:59.331Z,16.70
2018-12-11T09:23:59.414Z,10.60
2018-12-11T09:24:59.397Z,8.30
2018-12-11T09:25:59.521Z,8.80
2018-12-11T09:26:59.463Z,7.50
2018-12-11T09:27:59.498Z,13.20
2018-12-11T09:28:59.535Z,11.40
2018-12-11T09:29:59.589Z,5.10
2018-12-11T09:30:59.600Z,6.90
2018-12-11T09:31:59.636Z,5.60
2018-12-11T09:32:59.669Z,10.90
2018-12-11T09:33:59.706Z,6.80
2018-12-11T09:34:59.741Z,9.60
2018-12-11T09:35:59.778Z,7.90
2018-12-11T09:36:59.813Z,6.30
2018-12-11T09:37:59.848Z,6.50
2018-12-11T09:38:59.886Z,5.90
2018-12-11T09:39:59.922Z,6.60
2018-12-11T09:40:59.955Z,4.30
2018-12-11T09:41:59.995Z,7.10
2018-12-11T09:43:00.031Z,8.10
2018-12-11T09:44:00.067Z,7.30
2018-12-11T09:45:00.103Z,3.40
2018-12-11T09:46:00.139Z,3.70
2018-12-11T09:47:00.207Z,9.00
2018-12-11T09:48:00.214Z,4.10
2018-12-11T09:49:00.297Z,7.50
2018-12-11T09:50:00.291Z,5.90
2018-12-11T09:51:00.326Z,4.10
2018-12-11T09:52:00.365Z,5.10
2018-12-11T09:53:00.400Z,8.40
2018-12-11T09:54:00.438Z,4.50
2018-12-11T09:55:00.475Z,8.20
2018-12-11T09:56:00.513Z,4.10
2018-12-11T09:57:00.556Z,6.30
2018-12-11T09:58:00.588Z,4.90
2018-12-11T09:59:00.623Z,4.20
2018-12-11T10:00:00.658Z,5.70
2018-12-11T10:01:00.693Z,6.30
2018-12-11T10:02:00.733Z,5.90
2018-12-11T10:03:00.764Z,4.50
2018-12-11T10:04:00.798Z,6.80
2018-12-11T10:05:00.833Z,6.00
2018-12-11T10:06:00.869Z,5.80
2018-12-11T10:07:00.902Z,7.30
2018-12-11T10:08:00.936Z,8.70
2018-12-11T10:09:00.971Z,8.00
2018-12-11T10:10:01.011Z,6.20
2018-12-11T10:11:01.035Z,5.10
2018-12-11T10:12:01.070Z,13.50
2018-12-11T10:13:01.101Z,6.50
2018-12-11T10:14:01.135Z,6.70
2018-12-11T10:15:01.168Z,9.80
2018-12-11T10:16:01.203Z,9.90
2018-12-11T10:17:01.235Z,5.00
2018-12-11T10:18:01.267Z,11.20
2018-12-11T10:19:01.297Z,5.80
2018-12-11T10:20:01.328Z,10.40
2018-12-11T10:21:01.367Z,5.70
2018-12-11T10:22:01.395Z,8.70
2018-12-11T10:23:01.425Z,8.10
2018-12-11T10:24:01.461Z,6.70
2018-12-11T10:25:01.488Z,5.70
2018-12-11T10:26:01.521Z,9.80
2018-12-11T10:27:01.555Z,7.30
2018-12-11T10:28:01.587Z,9.70
2018-12-11T10:29:01.620Z,5.70
2018-12-11T10:30:01.652Z,6.60
2018-12-11T10:31:01.689Z,6.60
2018-12-11T10:32:01.718Z,5.00
2018-12-11T10:33:01.748Z,15.50
2018-12-11T10:34:01.781Z,9.60
2018-12-11T10:35:01.815Z,3.20
2018-12-11T10:36:01.847Z,4.00
2018-12-11T10:37:01.878Z,6.50
2018-12-11T10:38:01.911Z,6.40
2018-12-11T10:39:01.944Z,4.80
2018-12-11T10:40:01.977Z,7.10
2018-12-11T10:41:02.007Z,5.30
2018-12-11T10:42:02.040Z,4.90
2018-12-11T10:43:02.074Z,5.90
2018-12-11T10:44:02.105Z,8.40
2018-12-11T10:45:02.136Z,7.90
2018-12-11T10:46:02.170Z,6.60
2018-12-11T10:47:02.203Z,7.70
2018-12-11T10:48:02.235Z,6.80
2018-12-11T10:49:02.268Z,6.50
2018-12-11T10:50:02.301Z,6.00
2018-12-11T10:51:02.336Z,6.40
2018-12-11T10:52:02.369Z,5.40
2018-12-11T10:53:02.403Z,5.10
2018-12-11T10:54:02.435Z,6.50
2018-12-11T10:55:02.468Z,9.80
2018-12-11T10:56:02.503Z,5.20
2018-12-11T10:57:02.534Z,6.20
2018-12-11T10:58:02.569Z,9.40
2018-12-11T10:59:02.603Z,4.50
2018-12-11T11:00:02.637Z,6.00
2018-12-11T11:01:02.673Z,6.90
2018-12-11T11:02:02.706Z,4.40
2018-12-11T11:03:02.740Z,3.60
2018-12-11T11:04:02.776Z,6.20
2018-12-11T11:05:02.810Z,7.80
2018-12-11T11:06:02.847Z,7.20
2018-12-11T11:07:02.882Z,4.30
2018-12-11T11:08:02.918Z,9.10
2018-12-11T11:09:02.962Z,6.90
2018-12-11T11:10:02.986Z,6.00
2018-12-11T11:11:03.022Z,8.80
2018-12-11T11:12:03.090Z,8.70
2018-12-11T11:13:03.090Z,4.70
2018-12-11T11:14:03.129Z,7.90
2018-12-11T11:15:03.159Z,3.20
2018-12-11T11:16:03.192Z,6.00
2018-12-11T11:17:03.227Z,4.90
2018-12-11T11:18:03.260Z,8.50
2018-12-11T11:19:03.292Z,4.60
2018-12-11T11:20:03.328Z,8.30
2018-12-11T11:21:03.359Z,3.80
2018-12-11T11:22:03.393Z,5.90
2018-12-11T11:23:03.428Z,5.40
2018-12-11T11:24:03.458Z,9.40
2018-12-11T11:25:03.490Z,7.30
2018-12-11T11:26:03.524Z,4.50
2018-12-11T11:27:03.557Z,9.90
2018-12-11T11:28:03.593Z,7.20
2018-12-11T11:29:03.622Z,4.40
2018-12-11T11:30:03.652Z,4.50
2018-12-11T11:31:03.684Z,4.80
2018-12-11T11:32:03.717Z,6.20
2018-12-11T11:33:03.750Z,10.60
2018-12-11T11:34:03.780Z,7.20
2018-12-11T11:35:03.816Z,14.90
2018-12-11T11:36:03.846Z,4.50
2018-12-11T11:37:03.877Z,5.90
2018-12-11T11:38:03.910Z,4.60
2018-12-11T11:39:03.941Z,5.60
2018-12-11T11:40:03.978Z,7.40
2018-12-11T11:41:04.008Z,9.00
2018-12-11T11:42:04.039Z,5.80
2018-12-11T11:43:04.071Z,6.40
2018-12-11T11:44:04.104Z,6.10
2018-12-11T11:45:04.140Z,5.10
2018-12-11T11:46:04.173Z,3.70
2018-12-11T11:47:04.204Z,9.20
2018-12-11T11:48:04.236Z,8.50
2018-12-11T11:49:04.269Z,5.90
2018-12-11T11:50:04.306Z,3.00
2018-12-11T11:51:04.340Z,5.20
2018-12-11T11:52:04.375Z,6.60
2018-12-11T11:53:04.411Z,2.20
2018-12-11T11:54:04.445Z,7.80
2018-12-11T11:55:04.481Z,4.60
2018-12-11T11:56:04.518Z,4.20
2018-12-11T11:57:04.550Z,9.00
2018-12-11T11:58:04.587Z,6.50
2018-12-11T11:59:04.621Z,6.00
2018-12-11T12:00:04.657Z,7.00
2018-12-11T12:01:04.692Z,2.90
2018-12-11T12:02:04.728Z,8.10
2018-12-11T12:03:04.762Z,8.50
2018-12-11T12:04:04.797Z,7.50
2018-12-11T12:05:04.894Z,4.70
2018-12-11T12:06:04.867Z,4.90
2018-12-11T12:07:04.903Z,4.40
2018-12-11T12:08:04.936Z,10.60
2018-12-11T12:09:04.971Z,6.50
2018-12-11T12:10:05.006Z,5.00
2018-12-11T12:11:05.040Z,5.00
2018-12-11T12:12:05.076Z,4.80
2018-12-11T12:13:05.142Z,8.90
2018-12-11T12:14:05.145Z,2.90
2018-12-11T12:15:05.181Z,8.70
2018-12-11T12:16:05.213Z,12.00
2018-12-11T12:17:05.245Z,6.10
2018-12-11T12:18:05.281Z,4.70
2018-12-11T12:19:05.316Z,7.10
2018-12-11T12:20:05.348Z,4.80
2018-12-11T12:21:05.382Z,8.20
2018-12-11T12:22:05.515Z,4.80
2018-12-11T12:23:05.510Z,3.30
2018-12-11T12:24:05.485Z,5.90
2018-12-11T12:25:05.518Z,6.70
2018-12-11T12:26:05.552Z,5.80
2018-12-11T12:27:05.588Z,3.70
2018-12-11T12:28:05.623Z,5.10
2018-12-11T12:29:05.657Z,6.10
2018-12-11T12:30:05.695Z,7.10
2018-12-11T12:31:06.118Z,5.40
2018-12-11T12:32:05.758Z,4.30
2018-12-11T12:33:05.794Z,4.00
2018-12-11T12:34:05.840Z,8.40
2018-12-11T12:35:05.890Z,7.30
2018-12-11T12:36:05.899Z,9.30
2018-12-11T12:37:05.929Z,5.60
2018-12-11T12:38:05.965Z,8.00
2018-12-11T12:39:05.997Z,5.00
2018-12-11T12:40:06.039Z,6.70
2018-12-11T12:41:06.064Z,6.90
2018-12-11T12:42:06.097Z,4.90
2018-12-11T12:43:06.134Z,6.40
2018-12-11T12:44:06.164Z,5.60
2018-12-11T12:45:06.196Z,5.10
2018-12-11T12:46:06.229Z,6.20
2018-12-11T12:47:06.263Z,8.30
2018-12-11T12:48:06.295Z,8.90
2018-12-11T12:49:06.326Z,10.80
2018-12-11T12:50:06.359Z,6.70
2018-12-11T12:51:06.393Z,8.10
2018-12-11T12:52:06.424Z,8.30
2018-12-11T12:53:06.466Z,8.70
2018-12-11T12:54:06.506Z,4.00
2018-12-11T12:55:06.577Z,5.90
2018-12-11T12:56:06.551Z,8.10
2018-12-11T12:57:06.585Z,4.50
2018-12-11T12:58:06.614Z,2.90
2018-12-11T12:59:06.646Z,6.20
2018-12-11T13:00:06.681Z,8.80
2018-12-11T13:01:06.712Z,7.90
2018-12-11T13:02:06.741Z,7.00
2018-12-11T13:03:06.850Z,5.80
2018-12-11T13:04:06.804Z,6.20